Time;durP1;ratioP1;P1;durP2;ratioP2;P2;SDS_P1;SDS_P2;PMS_P1;PMS_P2;Temp;Humidity;BMP_temperature;BMP_pressure;BME280_temperature;BME280_humidity;BME280_pressure;Samples;Min_cycle;Max_cycle;Signal;HPM_P1;HPM_P2
2023/03/12 00:00:55;;;;;;;6.20;3.73;;;;;;;4.79;67.91;94000.94;5032472;28;20546;-70
2023/03/12 00:03:22;;;;;;;7.17;3.50;;;;;;;4.62;67.41;94011.78;5032354;28;20796;-72
2023/03/12 00:05:48;;;;;;;4.07;3.67;;;;;;;4.60;67.67;94017.09;5032182;28;20458;-72
2023/03/12 00:08:16;;;;;;;4.10;3.70;;;;;;;4.61;68.24;94028.31;5032342;28;20779;-71
2023/03/12 00:10:43;;;;;;;6.83;4.00;;;;;;;4.60;68.05;94039.66;5013528;28;20477;-72
2023/03/12 00:13:10;;;;;;;4.40;4.00;;;;;;;4.71;69.02;94044.06;5032666;28;20446;-71
2023/03/12 00:15:38;;;;;;;8.93;4.10;;;;;;;4.78;67.75;94042.63;5032032;28;20446;-72
2023/03/12 00:18:05;;;;;;;5.90;5.30;;;;;;;4.79;67.91;94052.09;5031921;28;20449;-72
2023/03/12 00:20:32;;;;;;;6.17;4.30;;;;;;;4.78;68.13;94040.88;5031621;28;20458;-72
2023/03/12 00:22:59;;;;;;;7.77;4.77;;;;;;;4.93;67.68;94059.69;5032519;28;20929;-72
2023/03/12 00:25:27;;;;;;;14.90;5.97;;;;;;;4.94;66.70;94059.56;5036046;28;20825;-72
2023/03/12 00:27:54;;;;;;;9.73;5.30;;;;;;;4.87;67.96;94050.56;5036312;28;20496;-73
2023/03/12 00:30:21;;;;;;;7.00;5.23;;;;;;;4.92;67.14;94048.47;5036125;28;20576;-72
2023/03/12 00:32:48;;;;;;;6.00;5.40;;;;;;;4.86;67.30;94045.47;5035939;28;21043;-71
2023/03/12 00:35:14;;;;;;;11.00;6.70;;;;;;;4.70;67.74;94038.03;5035942;28;20474;-72
2023/03/12 00:37:41;;;;;;;16.93;6.40;;;;;;;4.62;67.28;94040.34;5035544;28;20450;-72
2023/03/12 00:40:10;;;;;;;6.80;5.10;;;;;;;4.65;71.11;94019.38;5035532;28;20449;-73
2023/03/12 00:42:38;;;;;;;11.73;6.30;;;;;;;4.50;67.93;94028.28;5035524;28;20445;-72
2023/03/12 00:45:06;;;;;;;10.00;6.20;;;;;;;4.48;68.46;94037.97;5035782;28;20511;-72
2023/03/12 00:47:33;;;;;;;9.20;5.43;;;;;;;4.34;67.87;94031.22;5035698;28;20520;-71
2023/03/12 00:49:59;;;;;;;5.87;5.37;;;;;;;4.29;69.43;94025.53;5035836;28;20523;-72
2023/03/12 00:52:26;;;;;;;5.60;4.77;;;;;;;4.25;68.78;94027.53;5035687;28;20490;-72
2023/03/12 00:54:57;;;;;;;12.50;5.87;;;;;;;4.32;68.82;94026.13;5035475;28;20450;-72
2023/03/12 00:57:23;;;;;;;6.17;4.70;;;;;;;4.32;69.70;94023.53;5034970;28;20802;-73
2023/03/12 00:59:51;;;;;;;4.60;4.00;;;;;;;4.17;69.30;94022.06;5016588;28;20438;-73
2023/03/12 01:02:18;;;;;;;5.90;4.80;;;;;;;4.21;70.03;94026.09;5035990;28;20458;-73
2023/03/12 01:04:45;;;;;;;5.83;4.70;;;;;;;4.19;68.98;94030.56;5035394;28;20453;-71
2023/03/12 01:07:12;;;;;;;5.50;5.10;;;;;;;4.27;72.53;94036.03;5035385;28;20988;-73
2023/03/12 01:09:39;;;;;;;5.53;4.93;;;;;;;4.28;68.50;94035.06;5035287;28;20491;-72
2023/03/12 01:12:06;;;;;;;8.60;5.97;;;;;;;4.25;69.68;94035.31;5035085;28;21004;-73
2023/03/12 01:14:34;;;;;;;6.97;5.90;;;;;;;4.25;69.87;94037.06;5035003;28;20952;-72
2023/03/12 01:17:02;;;;;;;5.77;5.27;;;;;;;4.18;71.46;94023.72;5035246;28;20446;-73
2023/03/12 01:19:29;;;;;;;19.83;5.90;;;;;;;4.09;71.11;94045.19;5035078;28;20922;-72
2023/03/12 01:21:55;;;;;;;6.83;5.33;;;;;;;3.89;72.17;94041.44;5035195;28;20501;-72
2023/03/12 01:24:22;;;;;;;5.40;4.90;;;;;;;3.90;72.95;94052.63;5034966;28;20913;-72
2023/03/12 01:26:49;;;;;;;7.30;5.00;;;;;;;3.84;72.55;94053.09;5035051;28;20446;-72
2023/03/12 01:29:16;;;;;;;9.17;5.53;;;;;;;3.79;72.89;94055.19;5034834;28;20501;-72
2023/03/12 01:31:43;;;;;;;9.50;7.10;;;;;;;3.76;72.96;94053.66;5034980;28;20490;-72
2023/03/12 01:34:12;;;;;;;6.33;5.63;;;;;;;3.69;73.15;94058.41;5034353;28;20478;-72
2023/03/12 01:36:38;;;;;;;6.80;6.03;;;;;;;3.73;74.54;94051.25;5034185;28;20442;-74
2023/03/12 01:39:05;;;;;;;12.90;5.80;;;;;;;3.85;74.62;94046.97;5034973;28;20453;-73
2023/03/12 01:41:33;;;;;;;6.60;4.63;;;;;;;3.86;73.68;94066.78;5034661;28;20507;-72
2023/03/12 01:44:02;;;;;;;8.00;5.50;;;;;;;3.85;74.19;94049.56;5034637;28;20454;-73
2023/03/12 01:46:32;;;;;;;6.80;5.90;;;;;;;3.88;74.00;94057.94;5034617;28;20541;-72
2023/03/12 01:49:03;;;;;;;6.93;6.23;;;;;;;3.83;72.88;94064.41;5034723;28;20917;-73
2023/03/12 01:51:35;;;;;;;5.67;5.17;;;;;;;3.84;73.51;94064.28;5034282;28;20540;-73
2023/03/12 01:54:07;;;;;;;6.30;5.67;;;;;;;3.73;73.78;94053.84;5034510;28;20508;-73
2023/03/12 01:56:36;;;;;;;6.20;5.47;;;;;;;3.80;73.17;94041.28;5034572;28;20450;-71
2023/03/12 01:59:08;;;;;;;5.93;4.80;;;;;;;3.77;72.39;94052.72;5034752;28;20536;-72
2023/03/12 02:01:35;;;;;;;5.93;5.33;;;;;;;3.80;73.50;94062.88;5034337;28;20446;-73
2023/03/12 02:04:02;;;;;;;7.83;5.60;;;;;;;3.80;72.93;94054.25;5034307;28;20837;-73
2023/03/12 02:06:37;;;;;;;6.67;4.97;;;;;;;3.68;72.58;94061.97;5033626;28;20446;-70
2023/03/12 02:09:07;;;;;;;9.77;5.47;;;;;;;3.72;72.79;94068.56;5033869;28;21007;-72
2023/03/12 02:11:33;;;;;;;7.17;4.80;;;;;;;3.73;72.22;94056.44;4999352;28;20517;-72
2023/03/12 02:14:00;;;;;;;6.43;5.83;;;;;;;3.73;72.14;94059.84;5015490;28;20442;-71
2023/03/12 02:16:28;;;;;;;6.50;5.57;;;;;;;3.80;71.06;94068.06;5034225;28;20508;-72
2023/03/12 02:18:57;;;;;;;7.57;5.90;;;;;;;3.77;71.81;94062.25;5033921;28;20450;-72
2023/03/12 02:21:26;;;;;;;8.83;6.27;;;;;;;3.82;70.46;94044.59;5033918;28;20457;-72
2023/03/12 02:24:02;;;;;;;7.80;5.33;;;;;;;3.96;70.21;94047.81;5033789;28;20497;-72
2023/03/12 02:26:31;;;;;;;7.50;5.47;;;;;;;3.94;69.86;94049.72;5033906;28;20503;-73
2023/03/12 02:29:00;;;;;;;8.10;5.50;;;;;;;3.90;69.67;94037.06;5033754;28;20496;-73
2023/03/12 02:31:32;;;;;;;6.80;4.30;;;;;;;3.89;68.63;94046.63;5033711;28;20473;-73
2023/03/12 02:33:59;;;;;;;5.23;4.40;;;;;;;3.86;70.51;94025.25;5033250;28;20481;-72
2023/03/12 02:36:26;;;;;;;8.77;4.70;;;;;;;3.78;70.00;94022.41;5033850;28;20520;-72
2023/03/12 02:38:54;;;;;;;9.97;4.93;;;;;;;3.67;68.77;94031.75;5014921;28;20450;-74
2023/03/12 02:41:24;;;;;;;17.13;5.73;;;;;;;3.70;70.21;94033.31;5033644;28;20504;-72
2023/03/12 02:44:00;;;;;;;3.90;3.57;;;;;;;3.66;69.34;94039.66;5033377;28;20442;-72
2023/03/12 02:46:27;;;;;;;3.93;3.53;;;;;;;3.69;70.20;94019.50;5033120;28;20949;-70
2023/03/12 02:48:56;;;;;;;4.73;3.90;;;;;;;3.69;68.66;94035.06;5014744;28;20840;-71
2023/03/12 02:51:22;;;;;;;5.53;3.80;;;;;;;3.52;68.65;94030.28;4998012;28;20441;-72
2023/03/12 02:53:53;;;;;;;5.30;4.80;;;;;;;3.50;70.32;94032.16;5014226;28;20434;-73
2023/03/12 02:56:21;;;;;;;5.80;4.90;;;;;;;3.53;70.28;94034.53;5033298;28;20449;-73
2023/03/12 02:58:48;;;;;;;4.40;4.03;;;;;;;3.50;70.99;94026.97;4998177;28;20444;-73
2023/03/12 03:01:16;;;;;;;5.50;5.00;;;;;;;3.60;69.91;94034.91;5033348;28;20450;-72
2023/03/12 03:03:44;;;;;;;4.40;4.10;;;;;;;3.54;72.25;94036.19;5033015;28;21019;-73
2023/03/12 03:06:10;;;;;;;4.03;3.73;;;;;;;3.55;71.20;94039.59;5033177;28;20454;-73
2023/03/12 03:08:37;;;;;;;4.97;4.53;;;;;;;3.62;71.13;94043.41;5014588;28;20457;-72
2023/03/12 03:11:04;;;;;;;7.10;3.93;;;;;;;3.61;70.53;94049.53;5033045;28;20520;-73
2023/03/12 03:13:31;;;;;;;4.53;4.13;;;;;;;3.59;69.51;94043.63;5033123;28;20490;-72
2023/03/12 03:16:00;;;;;;;7.43;4.23;;;;;;;3.63;69.25;94042.47;5014185;28;20445;-72
2023/03/12 03:18:29;;;;;;;4.53;4.13;;;;;;;3.58;68.74;94050.59;5033067;28;20453;-72
2023/03/12 03:20:56;;;;;;;4.03;3.63;;;;;;;3.58;68.16;94073.94;5033234;28;20500;-72
2023/03/12 03:23:24;;;;;;;4.03;3.63;;;;;;;3.59;68.11;94065.22;5032892;28;20454;-72
2023/03/12 03:25:52;;;;;;;4.63;3.30;;;;;;;3.56;66.19;94087.94;5032773;28;20821;-73
2023/03/12 03:28:19;;;;;;;3.40;3.20;;;;;;;3.62;68.33;94075.38;5033020;28;20533;-72
2023/03/12 03:30:46;;;;;;;4.00;3.70;;;;;;;3.56;65.39;94096.56;5032902;28;20446;-72
2023/03/12 03:33:13;;;;;;;2.97;2.60;;;;;;;3.56;64.60;94096.56;5032735;28;20505;-73
2023/03/12 03:35:41;;;;;;;3.40;3.10;;;;;;;3.48;64.27;94101.47;5013865;28;20477;-72
2023/03/12 03:38:08;;;;;;;3.40;3.10;;;;;;;3.52;64.93;94096.88;5032680;28;20453;-72
2023/03/12 03:40:35;;;;;;;2.87;2.63;;;;;;;3.52;66.51;94092.53;5032481;28;21024;-70
2023/03/12 03:43:01;;;;;;;5.67;3.90;;;;;;;3.53;64.61;94101.97;5032719;28;20508;-72
2023/03/12 03:45:28;;;;;;;3.40;3.10;;;;;;;3.57;64.47;94116.38;5032650;28;20443;-73
2023/03/12 03:47:55;;;;;;;2.97;2.73;;;;;;;3.67;65.10;94119.97;5032461;28;20457;-73
2023/03/12 03:50:22;;;;;;;5.83;2.87;;;;;;;3.73;63.68;94124.72;5032317;28;20508;-71
2023/03/12 03:52:50;;;;;;;3.47;3.17;;;;;;;3.77;63.15;94130.53;5032133;28;20489;-71
2023/03/12 03:55:17;;;;;;;3.03;2.83;;;;;;;3.82;63.37;94145.78;5032345;28;20454;-71
2023/03/12 03:57:43;;;;;;;4.33;3.17;;;;;;;3.84;63.45;94143.91;5031208;28;20496;-71
2023/03/12 04:00:12;;;;;;;2.90;2.67;;;;;;;3.83;63.12;94145.69;5013484;28;20438;-73
2023/03/12 04:02:39;;;;;;;3.20;2.90;;;;;;;3.77;62.41;94151.31;4997224;28;20450;-74
2023/03/12 04:05:06;;;;;;;4.90;3.97;;;;;;;3.93;63.85;94157.06;5032008;28;20509;-73
2023/03/12 04:07:33;;;;;;;4.27;2.90;;;;;;;3.98;62.04;94149.75;5031917;28;20454;-72
2023/03/12 04:10:01;;;;;;;3.33;3.03;;;;;;;4.04;65.79;94156.28;5031701;28;20521;-72
2023/03/12 04:12:28;;;;;;;3.00;2.70;;;;;;;3.95;62.47;94165.56;5031994;28;20522;-73
2023/03/12 04:14:55;;;;;;;2.70;2.50;;;;;;;3.82;61.16;94177.75;5031672;28;20446;-72
2023/03/12 04:17:22;;;;;;;5.63;3.10;;;;;;;3.75;61.38;94189.47;5031865;28;20492;-72
2023/03/12 04:19:49;;;;;;;2.50;2.30;;;;;;;3.70;61.03;94179.41;5031888;28;20450;-73
2023/03/12 04:22:16;;;;;;;10.20;2.80;;;;;;;3.53;62.26;94190.16;5031789;28;20450;-73
2023/03/12 04:24:42;;;;;;;6.40;2.80;;;;;;;3.59;62.98;94183.72;5031544;28;20454;-72
2023/03/12 04:27:10;;;;;;;2.83;2.63;;;;;;;3.63;60.44;94190.34;5031701;28;20811;-73
2023/03/12 04:29:39;;;;;;;2.60;2.40;;;;;;;3.56;59.63;94202.06;5031715;28;20453;-72
2023/03/12 04:32:07;;;;;;;2.70;2.50;;;;;;;3.42;59.57;94197.81;5031734;28;20489;-73
2023/03/12 04:34:34;;;;;;;2.40;2.20;;;;;;;3.48;63.18;94202.59;5031518;28;20988;-73
2023/03/12 04:37:01;;;;;;;2.53;2.33;;;;;;;3.45;63.40;94202.78;5031382;28;20508;-72
2023/03/12 04:39:28;;;;;;;2.60;2.40;;;;;;;3.46;60.84;94211.41;5031738;28;20447;-73
2023/03/12 04:41:54;;;;;;;2.63;2.43;;;;;;;3.48;61.37;94202.59;5012758;28;21024;-70
2023/03/12 04:44:23;;;;;;;3.47;2.70;;;;;;;3.58;60.76;94203.63;5031571;28;20457;-72
2023/03/12 04:46:50;;;;;;;2.77;2.57;;;;;;;3.66;64.38;94211.69;5030990;28;20533;-72
2023/03/12 04:49:16;;;;;;;7.27;3.07;;;;;;;3.68;61.62;94219.38;5031250;28;20992;-72
2023/03/12 04:51:43;;;;;;;2.67;2.43;;;;;;;3.59;60.67;94215.66;5031662;28;20962;-73
2023/03/12 04:54:10;;;;;;;3.30;2.30;;;;;;;3.58;61.05;94226.97;5031560;28;20840;-73
2023/03/12 04:56:37;;;;;;;3.80;2.83;;;;;;;3.50;61.48;94225.84;5031587;28;20446;-73
2023/03/12 04:59:04;;;;;;;2.57;2.37;;;;;;;3.47;61.65;94229.47;5031581;28;20449;-72
2023/03/12 05:01:34;;;;;;;2.90;2.70;;;;;;;3.48;61.43;94233.72;5031237;28;20442;-73
2023/03/12 05:04:02;;;;;;;3.10;2.90;;;;;;;3.43;61.71;94241.78;5031682;28;20469;-73
2023/03/12 05:06:29;;;;;;;5.87;3.00;;;;;;;3.63;65.18;94242.22;5031371;28;20453;-72
2023/03/12 05:08:56;;;;;;;6.83;3.40;;;;;;;3.66;58.85;94245.44;5030916;28;20454;-72
2023/03/12 05:11:24;;;;;;;3.20;2.53;;;;;;;3.77;59.49;94236.09;5043682;28;20860;-73
2023/03/12 05:13:50;;;;;;;4.23;2.93;;;;;;;3.78;56.59;94250.72;5052408;28;20897;-73
2023/03/12 05:16:18;;;;;;;9.87;5.70;;;;;;;3.87;57.82;94250.91;5055055;28;20441;-72
2023/03/12 05:18:46;;;;;;;6.40;3.73;;;;;;;4.03;56.42;94253.25;5053914;28;20865;-73
2023/03/12 05:21:15;;;;;;;3.87;3.30;;;;;;;4.15;57.03;94259.38;5054176;28;20816;-73
2023/03/12 05:23:42;;;;;;;13.07;6.57;;;;;;;4.21;56.34;94264.97;5056769;28;20457;-73
2023/03/12 05:26:16;;;;;;;3.87;3.13;;;;;;;4.34;58.41;94259.75;5057539;28;20459;-72
2023/03/12 05:28:43;;;;;;;16.00;7.67;;;;;;;4.34;61.59;94258.00;5052813;28;20867;-72
2023/03/12 05:31:11;;;;;;;9.73;5.63;;;;;;;4.33;57.24;94251.13;5054708;28;20544;-72
2023/03/12 05:33:38;;;;;;;4.80;3.50;;;;;;;4.79;57.00;94260.00;5053916;28;20496;-73
2023/03/12 05:36:07;;;;;;;3.80;3.00;;;;;;;5.12;54.91;94272.31;5054123;28;20453;-73
2023/03/12 05:38:35;;;;;;;4.33;2.50;;;;;;;5.19;55.20;94266.53;5054367;28;20764;-72
2023/03/12 05:41:02;;;;;;;2.73;2.40;;;;;;;5.63;53.59;94275.41;5054666;28;20448;-74
2023/03/12 05:43:28;;;;;;;5.07;3.10;;;;;;;5.98;56.44;94284.94;5049374;28;20465;-72
2023/03/12 05:45:59;;;;;;;6.00;4.40;;;;;;;6.08;56.05;94278.94;5060196;28;20434;-72
2023/03/12 05:48:26;;;;;;;7.90;3.80;;;;;;;6.12;51.99;94285.56;5054956;28;20449;-72
2023/03/12 05:50:52;;;;;;;6.83;3.17;;;;;;;6.13;52.94;94292.44;5054435;28;20932;-73
2023/03/12 05:53:21;;;;;;;8.33;3.40;;;;;;;6.21;53.73;94282.25;5052707;28;20844;-72
2023/03/12 05:55:47;;;;;;;5.30;4.17;;;;;;;6.38;52.46;94290.53;5052779;28;20863;-73
2023/03/12 05:58:14;;;;;;;4.93;3.17;;;;;;;6.50;49.74;94292.16;5040758;28;20933;-71
2023/03/12 06:00:43;;;;;;;4.87;3.33;;;;;;;6.75;49.84;94298.88;5053372;28;20441;-72
2023/03/12 06:03:10;;;;;;;3.97;3.13;;;;;;;7.13;53.79;94298.41;5053479;28;20444;-73
2023/03/12 06:05:37;;;;;;;2.50;2.40;;;;;;;7.31;48.30;94302.16;5053999;28;20445;-74
2023/03/12 06:08:05;;;;;;;8.60;4.60;;;;;;;7.58;47.73;94303.47;5053583;28;20858;-74
2023/03/12 06:10:33;;;;;;;3.67;2.77;;;;;;;7.77;47.81;94301.78;5053368;28;20498;-74
2023/03/12 06:13:00;;;;;;;5.67;4.97;;;;;;;8.19;51.32;94316.63;5053007;28;20559;-74
2023/03/12 06:15:27;;;;;;;4.13;3.40;;;;;;;8.47;52.71;94313.34;5053414;28;20450;-72
2023/03/12 06:17:53;;;;;;;3.27;2.97;;;;;;;8.37;46.43;94323.75;5053295;28;20450;-72
2023/03/12 06:20:20;;;;;;;5.10;3.50;;;;;;;8.24;45.82;94317.06;5052986;28;20454;-72
2023/03/12 06:22:47;;;;;;;3.20;2.67;;;;;;;7.88;51.30;94315.75;5052205;28;20450;-72
2023/03/12 06:25:14;;;;;;;3.60;2.67;;;;;;;7.81;48.52;94320.66;5052676;28;20449;-71
2023/03/12 06:27:42;;;;;;;4.63;3.20;;;;;;;7.94;49.10;94323.91;5052258;28;20442;-71
2023/03/12 06:30:10;;;;;;;6.30;4.33;;;;;;;8.01;48.45;94317.19;5052906;28;20489;-71
2023/03/12 06:32:37;;;;;;;3.30;3.00;;;;;;;7.77;48.79;94314.03;5052645;28;20461;-72
2023/03/12 06:35:04;;;;;;;8.70;4.60;;;;;;;7.51;52.05;94333.63;5052989;28;20515;-72
2023/03/12 06:37:31;;;;;;;3.83;3.53;;;;;;;7.44;50.85;94339.34;5052177;28;20978;-71
2023/03/12 06:39:58;;;;;;;4.23;3.83;;;;;;;7.57;51.33;94335.75;5052526;28;20955;-73
2023/03/12 06:42:25;;;;;;;4.63;4.10;;;;;;;7.86;50.23;94339.41;5052543;28;20443;-72
2023/03/12 06:44:53;;;;;;;6.60;3.97;;;;;;;7.82;50.57;94343.22;5052602;28;20948;-72
2023/03/12 06:47:20;;;;;;;3.53;3.23;;;;;;;8.05;51.63;94349.13;5034028;28;20430;-70
2023/03/12 06:49:47;;;;;;;8.30;2.90;;;;;;;8.16;49.31;94356.09;5052760;28;20442;-72
2023/03/12 06:52:14;;;;;;;3.10;2.90;;;;;;;7.76;49.70;94344.53;5053159;28;20472;-72
2023/03/12 06:54:41;;;;;;;4.80;3.30;;;;;;;7.92;51.28;94349.31;5053008;28;20535;-72
2023/03/12 06:57:08;;;;;;;5.43;3.30;;;;;;;7.49;52.52;94359.84;5017522;28;20451;-72
2023/03/12 06:59:34;;;;;;;4.57;3.60;;;;;;;7.41;53.18;94360.47;5052616;28;20441;-72
2023/03/12 07:02:03;;;;;;;6.10;4.57;;;;;;;7.56;57.35;94349.75;5052687;28;20510;-72
2023/03/12 07:04:29;;;;;;;5.17;4.50;;;;;;;7.41;53.94;94350.03;5052505;28;20453;-72
2023/03/12 07:06:56;;;;;;;4.40;3.80;;;;;;;7.67;53.77;94353.13;5052333;28;20448;-72
2023/03/12 07:09:23;;;;;;;8.60;4.90;;;;;;;8.27;68.67;94358.59;5052559;28;20445;-73
2023/03/12 07:11:51;;;;;;;5.37;4.60;;;;;;;8.18;53.71;94362.84;5052296;28;20816;-71
2023/03/12 07:14:20;;;;;;;8.23;5.27;;;;;;;8.08;52.93;94362.75;5052167;28;20482;-73
2023/03/12 07:16:47;;;;;;;5.63;3.30;;;;;;;7.78;52.77;94376.56;5052178;28;20957;-72
2023/03/12 07:19:15;;;;;;;6.00;4.70;;;;;;;7.54;54.95;94383.81;5052198;28;20503;-72
2023/03/12 07:21:42;;;;;;;6.70;5.17;;;;;;;7.32;54.38;94395.16;5051636;28;20453;-72
2023/03/12 07:24:09;;;;;;;12.03;5.50;;;;;;;7.41;55.59;94397.00;5051805;28;20499;-72
2023/03/12 07:26:36;;;;;;;5.93;4.40;;;;;;;7.52;53.65;94385.72;5051417;28;20459;-71
2023/03/12 07:29:02;;;;;;;6.30;3.60;;;;;;;7.65;50.13;94396.81;5051526;28;20619;-72
2023/03/12 07:31:29;;;;;;;6.47;4.23;;;;;;;7.83;53.85;94391.88;5033139;28;20449;-72
2023/03/12 07:33:56;;;;;;;4.20;3.13;;;;;;;7.52;50.29;94408.38;5050984;28;20494;-71
2023/03/12 07:36:24;;;;;;;5.03;3.73;;;;;;;7.53;50.38;94412.66;5051504;28;20504;-71
2023/03/12 07:38:51;;;;;;;6.13;4.00;;;;;;;7.45;51.21;94413.25;5051820;28;20446;-70
2023/03/12 07:41:18;;;;;;;5.77;3.57;;;;;;;7.36;53.64;94404.38;5051837;28;20449;-73
2023/03/12 07:43:45;;;;;;;8.50;5.03;;;;;;;7.53;51.44;94410.88;5051538;28;20784;-73
2023/03/12 07:46:12;;;;;;;11.40;4.90;;;;;;;7.66;55.44;94410.72;5051721;28;20445;-72
2023/03/12 07:48:38;;;;;;;12.57;5.70;;;;;;;7.42;50.71;94419.56;5051751;28;20452;-71
2023/03/12 07:51:06;;;;;;;10.93;5.30;;;;;;;7.37;51.53;94419.09;5051589;28;20964;-73
2023/03/12 07:53:34;;;;;;;9.67;4.70;;;;;;;7.64;61.74;94413.44;5051426;28;20833;-73
2023/03/12 07:56:01;;;;;;;5.20;3.80;;;;;;;7.95;52.69;94424.84;5032787;28;20450;-72
2023/03/12 07:58:28;;;;;;;3.57;3.27;;;;;;;7.99;49.32;94409.72;5051121;28;20549;-71
2023/03/12 08:00:55;;;;;;;9.37;4.70;;;;;;;7.66;50.14;94432.41;5050981;28;20465;-71
2023/03/12 08:03:23;;;;;;;6.43;3.77;;;;;;;7.41;48.60;94433.56;5051362;28;20433;-72
2023/03/12 08:05:57;;;;;;;13.53;7.63;;;;;;;7.56;52.39;94425.47;5050941;28;20488;-72
2023/03/12 08:08:24;;;;;;;9.77;6.50;;;;;;;7.71;49.71;94432.03;5050784;28;20447;-71
2023/03/12 08:10:52;;;;;;;5.70;3.10;;;;;;;7.65;50.88;94440.38;5050651;28;20512;-72
2023/03/12 08:13:19;;;;;;;12.83;5.53;;;;;;;7.70;51.03;94453.88;5050694;28;20491;-71
2023/03/12 08:15:46;;;;;;;8.30;4.80;;;;;;;7.77;49.21;94444.59;5050842;28;20858;-72
2023/03/12 08:18:13;;;;;;;9.50;4.43;;;;;;;7.44;48.19;94469.84;5051788;28;20442;-72
2023/03/12 08:20:39;;;;;;;3.00;2.70;;;;;;;7.46;49.78;94457.50;5051989;28;20454;-72
2023/03/12 08:23:06;;;;;;;5.10;4.20;;;;;;;7.40;48.99;94458.00;5051670;28;20454;-72
2023/03/12 08:25:34;;;;;;;5.80;4.00;;;;;;;7.41;51.03;94469.28;5051298;28;20473;-72
2023/03/12 08:28:03;;;;;;;4.60;3.40;;;;;;;7.37;50.16;94458.25;5051602;28;20464;-73
2023/03/12 08:30:30;;;;;;;8.03;3.57;;;;;;;7.39;50.26;94477.22;5051192;28;20503;-72
2023/03/12 08:32:57;;;;;;;7.77;4.30;;;;;;;7.53;50.00;94464.88;5051571;28;20536;-72
2023/03/12 08:35:24;;;;;;;11.20;4.83;;;;;;;7.65;49.55;94471.72;5050984;28;20522;-72
2023/03/12 08:37:51;;;;;;;8.77;3.93;;;;;;;7.42;47.46;94481.38;5051455;28;20454;-72
2023/03/12 08:40:18;;;;;;;5.43;3.80;;;;;;;7.31;50.35;94479.63;5051518;28;20453;-72
2023/03/12 08:42:45;;;;;;;7.10;4.33;;;;;;;7.04;49.89;94485.22;5051687;28;20442;-72
2023/03/12 08:45:14;;;;;;;6.90;4.17;;;;;;;7.04;50.88;94487.81;5053925;28;20487;-72
2023/03/12 08:47:43;;;;;;;4.50;3.77;;;;;;;7.22;52.91;94482.09;5055646;28;20528;-72
2023/03/12 08:50:11;;;;;;;6.70;4.50;;;;;;;7.23;52.57;94486.38;5019787;28;20441;-72
2023/03/12 08:52:38;;;;;;;7.80;4.20;;;;;;;7.11;48.42;94498.59;5055019;28;20441;-72
2023/03/12 08:55:06;;;;;;;4.80;3.93;;;;;;;7.30;51.54;94462.31;5054860;28;20992;-73
2023/03/12 08:57:33;;;;;;;9.03;5.67;;;;;;;7.25;50.83;94489.72;5054844;28;20936;-72
2023/03/12 08:59:59;;;;;;;9.53;3.87;;;;;;;7.51;50.74;94479.81;5054967;28;20925;-72
2023/03/12 09:02:28;;;;;;;4.03;3.63;;;;;;;7.55;48.60;94491.69;5054702;28;20784;-72
2023/03/12 09:04:55;;;;;;;3.30;3.00;;;;;;;6.98;48.18;94482.25;5054709;28;20914;-72
2023/03/12 09:07:22;;;;;;;8.60;3.97;;;;;;;7.19;49.38;94471.91;5054578;28;20445;-71
2023/03/12 09:09:48;;;;;;;3.80;3.27;;;;;;;7.09;51.70;94484.84;5054677;28;20469;-72
2023/03/12 09:12:15;;;;;;;4.60;3.43;;;;;;;7.18;50.02;94499.78;5054760;28;20433;-72
2023/03/12 09:14:42;;;;;;;6.07;4.00;;;;;;;7.01;51.28;94492.44;5054656;28;20481;-72
2023/03/12 09:17:09;;;;;;;6.93;3.90;;;;;;;6.95;51.37;94487.72;5054661;28;20445;-73
2023/03/12 09:19:37;;;;;;;9.10;5.23;;;;;;;7.14;50.47;94486.13;5054514;28;20457;-73
2023/03/12 09:22:04;;;;;;;7.03;4.30;;;;;;;7.31;51.27;94487.44;5054502;28;20849;-72
2023/03/12 09:24:31;;;;;;;5.77;4.20;;;;;;;7.49;50.52;94477.31;5054273;28;20441;-72
2023/03/12 09:26:58;;;;;;;9.20;4.10;;;;;;;7.49;49.63;94498.19;5054481;28;20803;-72
2023/03/12 09:29:25;;;;;;;6.80;4.07;;;;;;;7.53;48.40;94497.03;5054352;28;20934;-72
2023/03/12 09:31:52;;;;;;;5.00;4.03;;;;;;;7.37;48.46;94491.34;5019260;28;20449;-72
2023/03/12 09:34:18;;;;;;;6.63;4.13;;;;;;;7.52;51.99;94497.13;5053837;28;20857;-72
2023/03/12 09:36:47;;;;;;;6.33;3.90;;;;;;;7.49;48.27;94500.81;5054486;28;20885;-72
2023/03/12 09:39:13;;;;;;;3.83;3.43;;;;;;;7.85;48.57;94491.03;5054067;28;20958;-73
2023/03/12 09:41:42;;;;;;;5.40;3.80;;;;;;;7.83;48.58;94491.16;5054396;28;20455;-73
2023/03/12 09:44:17;;;;;;;4.30;3.77;;;;;;;7.76;49.06;94488.16;5054075;28;20933;-73
2023/03/12 09:46:48;;;;;;;6.50;3.67;;;;;;;7.76;49.20;94476.91;5053938;28;20444;-72
2023/03/12 09:49:32;;;;;;;4.57;3.80;;;;;;;7.94;47.96;94501.53;5054291;28;20499;-72
2023/03/12 09:52:02;;;;;;;7.40;4.40;;;;;;;8.05;47.90;94490.22;5053923;28;20930;-72
2023/03/12 09:54:37;;;;;;;5.20;3.83;;;;;;;7.82;46.27;94484.25;5053884;28;20486;-72
2023/03/12 09:57:12;;;;;;;3.87;2.87;;;;;;;7.51;47.66;94471.97;5034811;28;20528;-73
2023/03/12 09:59:39;;;;;;;5.07;3.97;;;;;;;7.39;48.86;94482.44;5053613;28;20451;-71
2023/03/12 10:02:25;;;;;;;5.53;3.30;;;;;;;7.50;49.13;94489.41;5053795;28;20519;-72
2023/03/12 10:04:56;;;;;;;4.87;3.47;;;;;;;7.47;49.14;94477.44;5053810;28;20457;-72
2023/03/12 10:07:31;;;;;;;3.50;3.20;;;;;;;7.70;56.75;94480.00;5053883;28;20453;-72
2023/03/12 10:10:17;;;;;;;5.43;3.33;;;;;;;7.66;53.00;94475.97;5018498;28;20441;-73
2023/03/12 10:12:59;;;;;;;3.93;3.23;;;;;;;7.58;47.67;94479.22;5054196;28;20853;-73
2023/03/12 10:15:37;;;;;;;3.70;3.20;;;;;;;7.75;48.46;94477.84;5053604;28;20482;-72
2023/03/12 10:18:17;;;;;;;5.30;3.80;;;;;;;7.80;48.40;94475.69;5035876;28;20451;-72
2023/03/12 10:20:55;;;;;;;4.30;3.03;;;;;;;7.87;48.20;94476.88;5053623;28;20489;-72
2023/03/12 10:23:34;;;;;;;12.37;7.63;;;;;;;7.89;47.56;94477.59;5053260;28;20442;-71
2023/03/12 10:26:08;;;;;;;11.00;6.47;;;;;;;7.96;50.15;94464.84;5053506;28;20462;-73
2023/03/12 10:28:39;;;;;;;3.93;3.30;;;;;;;7.99;47.70;94457.59;5053158;28;20469;-72
2023/03/12 10:31:12;;;;;;;4.30;3.77;;;;;;;8.21;55.06;94467.13;5018070;28;20462;-72
2023/03/12 10:33:44;;;;;;;4.67;2.90;;;;;;;7.99;45.76;94464.59;5053383;28;20465;-70
2023/03/12 10:36:17;;;;;;;6.90;3.47;;;;;;;7.95;47.18;94471.84;5053210;28;20826;-72
2023/03/12 10:38:47;;;;;;;4.00;3.20;;;;;;;7.74;46.50;94470.97;5053018;28;20438;-73
2023/03/12 10:41:16;;;;;;;4.60;4.20;;;;;;;7.69;48.49;94470.50;5052728;28;20786;-73
2023/03/12 10:43:43;;;;;;;3.83;3.43;;;;;;;7.76;47.45;94475.13;5053168;28;20438;-73
2023/03/12 10:46:43;;;;;;;5.03;3.20;;;;;;;7.87;43.72;94481.28;5053185;28;20442;-72
2023/03/12 10:49:24;;;;;;;4.37;3.43;;;;;;;7.96;45.01;94478.75;4991155;28;20449;-73
2023/03/12 10:51:56;;;;;;;3.20;2.70;;;;;;;8.02;47.62;94470.41;4991178;28;20441;-72
2023/03/12 10:54:29;;;;;;;3.40;3.00;;;;;;;8.05;44.53;94477.97;4991087;28;20492;-73
2023/03/12 10:56:56;;;;;;;7.27;4.07;;;;;;;8.13;44.92;94472.16;4991241;28;20445;-72
2023/03/12 10:59:28;;;;;;;3.63;3.30;;;;;;;8.04;45.05;94468.47;4990954;28;20504;-72
2023/03/12 11:01:54;;;;;;;3.83;3.33;;;;;;;8.05;45.84;94464.91;4990756;28;20445;-72
2023/03/12 11:04:25;;;;;;;3.30;3.00;;;;;;;8.05;46.15;94470.16;4991040;28;20896;-73
2023/03/12 11:07:17;;;;;;;3.57;2.90;;;;;;;8.16;43.31;94481.53;4990526;28;20920;-73
2023/03/12 11:09:46;;;;;;;3.63;3.13;;;;;;;8.29;44.03;94474.31;4990874;28;20454;-72
2023/03/12 11:12:27;;;;;;;5.17;3.90;;;;;;;8.29;45.47;94467.31;4990907;28;20591;-73
2023/03/12 11:14:54;;;;;;;5.80;2.80;;;;;;;8.11;45.26;94468.00;4990641;28;20587;-72
2023/03/12 11:17:23;;;;;;;7.40;2.90;;;;;;;8.05;44.17;94458.88;4990849;28;20468;-73
2023/03/12 11:19:50;;;;;;;7.40;4.63;;;;;;;8.16;46.15;94460.63;4990813;28;20448;-73
2023/03/12 11:22:29;;;;;;;5.67;3.43;;;;;;;8.32;43.10;94466.22;4990608;28;20435;-73
2023/03/12 11:25:00;;;;;;;3.40;2.90;;;;;;;8.43;44.89;94468.81;4990455;28;20838;-72
2023/03/12 11:27:40;;;;;;;3.30;3.00;;;;;;;8.44;42.31;94460.03;5045843;28;20439;-73
2023/03/12 11:30:13;;;;;;;4.63;4.17;;;;;;;8.68;42.86;94444.91;5052026;28;20895;-72
2023/03/12 11:32:43;;;;;;;5.63;3.40;;;;;;;8.81;44.19;94451.69;5052327;28;20458;-73
2023/03/12 11:35:12;;;;;;;3.60;3.30;;;;;;;8.96;43.92;94451.22;5052171;28;20494;-73
2023/03/12 11:37:53;;;;;;;3.20;2.90;;;;;;;8.78;43.96;94449.34;5051763;28;21001;-71
2023/03/12 11:40:39;;;;;;;2.30;2.10;;;;;;;8.64;42.01;94456.53;5051947;28;20504;-73
2023/03/12 11:43:27;;;;;;;3.70;2.80;;;;;;;8.55;41.23;94446.88;5051408;28;20462;-73
2023/03/12 11:46:16;;;;;;;4.67;3.20;;;;;;;8.72;43.31;94453.31;5051460;28;20449;-72
2023/03/12 11:48:55;;;;;;;4.00;3.60;;;;;;;8.59;43.95;94442.22;5051556;28;20833;-73